createdAt,value
2023-04-25T00:00:51.428Z,20.8405
2023-04-25T00:01:52.995Z,20.8784
2023-04-25T00:02:58.038Z,20.8894
2023-04-25T00:03:56.736Z,20.8972
2023-04-25T00:04:58.209Z,20.9002
2023-04-25T00:05:59.575Z,20.8842
2023-04-25T00:07:01.301Z,20.8497
2023-04-25T00:08:02.875Z,20.8191
2023-04-25T00:09:04.535Z,20.7759
2023-04-25T00:10:06.142Z,20.7467
2023-04-25T00:11:07.827Z,20.7195
2023-04-25T00:12:09.479Z,20.7079
2023-04-25T00:13:11.953Z,20.7088
2023-04-25T00:14:12.742Z,20.7342
2023-04-25T00:15:14.421Z,20.7828
2023-04-25T00:16:16.118Z,20.8199
2023-04-25T00:17:17.938Z,20.8705
2023-04-25T00:18:19.372Z,20.8937
2023-04-25T00:19:21.063Z,20.8863
2023-04-25T00:20:22.667Z,20.8697
2023-04-25T00:21:24.338Z,20.8435
2023-04-25T00:22:26.030Z,20.7871
2023-04-25T00:23:27.663Z,20.7412
2023-04-25T00:24:29.261Z,20.7018
2023-04-25T00:25:30.955Z,20.6636
2023-04-25T00:26:32.541Z,20.6518
2023-04-25T00:27:34.276Z,20.6795
2023-04-25T00:28:35.940Z,20.7317
2023-04-25T00:29:37.545Z,20.7595
2023-04-25T00:30:39.237Z,20.7715
2023-04-25T00:31:40.922Z,20.7888
2023-04-25T00:32:42.563Z,20.8067
2023-04-25T00:33:44.195Z,20.8189
2023-04-25T00:34:45.820Z,20.8169
2023-04-25T00:35:47.469Z,20.8078
2023-04-25T00:36:49.049Z,20.7884
2023-04-25T00:37:51.018Z,20.7461
2023-04-25T00:38:52.470Z,20.6951
2023-04-25T00:39:54.091Z,20.6572
2023-04-25T00:40:55.684Z,20.6436
2023-04-25T00:41:57.313Z,20.6565
2023-04-25T00:42:59.045Z,20.6833
2023-04-25T00:44:01.491Z,20.7349
2023-04-25T00:45:02.325Z,20.7742
2023-04-25T00:46:03.918Z,20.7802
2023-04-25T00:47:05.660Z,20.7564
2023-04-25T00:48:07.391Z,20.7254
2023-04-25T00:49:10.441Z,20.7021
2023-04-25T00:50:10.615Z,20.6561
2023-04-25T00:51:12.160Z,20.6125
2023-04-25T00:52:13.818Z,20.5749
2023-04-25T00:53:15.469Z,20.5723
2023-04-25T00:54:17.128Z,20.6110
2023-04-25T00:55:18.836Z,20.6494
2023-04-25T00:56:20.420Z,20.6715
2023-04-25T00:57:22.125Z,20.7040
2023-04-25T00:58:23.727Z,20.7419
2023-04-25T00:59:25.452Z,20.7907
2023-04-25T01:00:27.039Z,20.8272
2023-04-25T01:01:28.867Z,20.8350
2023-04-25T01:02:30.478Z,20.8381
2023-04-25T01:03:32.141Z,20.8309
2023-04-25T01:04:33.772Z,20.8283
2023-04-25T01:05:35.331Z,20.8192
2023-04-25T01:06:36.905Z,20.8008
2023-04-25T01:07:38.584Z,20.7773
2023-04-25T01:08:40.199Z,20.7241
2023-04-25T01:09:41.979Z,20.6858
2023-04-25T01:10:43.973Z,20.6482
2023-04-25T01:11:45.149Z,20.6243
2023-04-25T01:12:46.786Z,20.6293
2023-04-25T01:13:48.772Z,20.6513
2023-04-25T01:14:50.119Z,20.6772
2023-04-25T01:15:51.808Z,20.7201
2023-04-25T01:16:53.395Z,20.7753
2023-04-25T01:17:55.099Z,20.8476
2023-04-25T01:18:56.719Z,20.9493
2023-04-25T01:19:58.393Z,21.0274
2023-04-25T01:21:00.040Z,21.0933
2023-04-25T01:22:01.654Z,21.1281
2023-04-25T01:23:03.306Z,21.1443
2023-04-25T01:24:04.964Z,21.1207
2023-04-25T01:25:06.655Z,21.0973
2023-04-25T01:26:09.043Z,21.0427
2023-04-25T01:27:09.879Z,21.0036
2023-04-25T01:28:11.606Z,20.9598
2023-04-25T01:29:13.212Z,20.9065
2023-04-25T01:30:15.003Z,20.8545
2023-04-25T01:31:17.029Z,20.8005
2023-04-25T01:32:18.309Z,20.7453
2023-04-25T01:33:19.818Z,20.7126
2023-04-25T01:34:21.502Z,20.7505
2023-04-25T01:35:23.163Z,20.8012
2023-04-25T01:36:24.816Z,20.8330
2023-04-25T01:37:26.538Z,20.8671
2023-04-25T01:38:28.085Z,20.8859
2023-04-25T01:39:29.705Z,20.8997
2023-04-25T01:40:31.398Z,20.8911
2023-04-25T01:41:33.063Z,20.8603
2023-04-25T01:42:34.792Z,20.8054
2023-04-25T01:43:36.382Z,20.7447
2023-04-25T01:44:37.973Z,20.7046
2023-04-25T01:45:39.624Z,20.6983
2023-04-25T01:46:41.350Z,20.7369
2023-04-25T01:47:42.905Z,20.7460
2023-04-25T01:48:44.533Z,20.7606
2023-04-25T01:49:46.074Z,20.8231
2023-04-25T01:50:47.789Z,20.9246
2023-04-25T01:51:49.447Z,21.0373
2023-04-25T01:52:51.181Z,21.1209
2023-04-25T01:53:52.944Z,21.2200
2023-04-25T01:54:54.440Z,21.2906
2023-04-25T01:55:56.027Z,21.3230
2023-04-25T01:56:57.724Z,21.2960
2023-04-25T01:57:59.373Z,21.2441
2023-04-25T01:59:01.434Z,21.1876
2023-04-25T02:00:02.693Z,21.1400
2023-04-25T02:01:04.333Z,21.0891
2023-04-25T02:02:05.929Z,21.0393
2023-04-25T02:03:07.752Z,20.9929
2023-04-25T02:04:09.657Z,20.9382
2023-04-25T02:05:11.167Z,20.8834
2023-04-25T02:06:12.695Z,20.8603
2023-04-25T02:07:14.382Z,20.8713
2023-04-25T02:08:16.095Z,20.8736
2023-04-25T02:09:17.665Z,20.8803
2023-04-25T02:10:20.279Z,20.8873
2023-04-25T02:11:21.008Z,20.9065
2023-04-25T02:12:23.133Z,20.9309
2023-04-25T02:13:24.245Z,20.9600
2023-04-25T02:14:25.945Z,20.9635
2023-04-25T02:15:27.545Z,20.9625
2023-04-25T02:16:29.273Z,20.9792
2023-04-25T02:17:30.879Z,20.9826
2023-04-25T02:18:33.535Z,21.0303
2023-04-25T02:19:34.148Z,21.1026
2023-04-25T02:20:35.782Z,21.1999
2023-04-25T02:21:37.427Z,21.2827
2023-04-25T02:22:39.093Z,21.3523
2023-04-25T02:23:40.820Z,21.4212
2023-04-25T02:24:42.461Z,21.4592
2023-04-25T02:25:44.072Z,21.4745
2023-04-25T02:26:45.726Z,21.4365
2023-04-25T02:27:47.387Z,21.3669
2023-04-25T02:28:48.960Z,21.3052
2023-04-25T02:29:51.695Z,21.2441
2023-04-25T02:30:52.255Z,21.1873
2023-04-25T02:31:54.060Z,21.1347
2023-04-25T02:32:55.642Z,21.0676
2023-04-25T02:33:57.270Z,21.0055
2023-04-25T02:34:58.933Z,20.9478
2023-04-25T02:36:00.572Z,20.9107
2023-04-25T02:37:02.258Z,20.9188
2023-04-25T02:38:03.835Z,20.9503
2023-04-25T02:39:05.494Z,20.9532
2023-04-25T02:40:08.139Z,20.9686
2023-04-25T02:41:08.823Z,21.0150
2023-04-25T02:42:10.504Z,21.1080
2023-04-25T02:43:12.073Z,21.1802
2023-04-25T02:44:13.775Z,21.2133
2023-04-25T02:45:15.442Z,21.2641
2023-04-25T02:46:22.978Z,21.3026
2023-04-25T02:47:18.771Z,21.3002
2023-04-25T02:48:20.630Z,21.2802
2023-04-25T02:49:22.064Z,21.2202
2023-04-25T02:50:24.072Z,21.1585
2023-04-25T02:51:25.287Z,21.1015
2023-04-25T02:52:26.965Z,21.0313
2023-04-25T02:53:28.575Z,20.9584
2023-04-25T02:54:30.245Z,20.8759
2023-04-25T02:55:31.989Z,20.8231
2023-04-25T02:56:33.537Z,20.8337
2023-04-25T02:57:35.268Z,20.8730
2023-04-25T02:58:36.816Z,20.8917
2023-04-25T02:59:38.543Z,20.9212
2023-04-25T03:00:40.135Z,20.9454
2023-04-25T03:01:41.925Z,20.9810
2023-04-25T03:02:43.572Z,21.0265
2023-04-25T03:03:45.152Z,21.0747
2023-04-25T03:04:46.777Z,21.1510
2023-04-25T03:05:48.328Z,21.2444
2023-04-25T03:06:50.040Z,21.3231
2023-04-25T03:07:51.711Z,21.3722
2023-04-25T03:08:53.367Z,21.4002
2023-04-25T03:09:54.975Z,21.4202
2023-04-25T03:10:56.645Z,21.4261
2023-04-25T03:11:58.284Z,21.4001
2023-04-25T03:12:59.935Z,21.3921
2023-04-25T03:14:01.647Z,21.3577
2023-04-25T03:15:03.175Z,21.3155
2023-04-25T03:16:04.908Z,21.2578
2023-04-25T03:17:06.437Z,21.1940
2023-04-25T03:18:08.291Z,21.1275
2023-04-25T03:19:09.846Z,21.0631
2023-04-25T03:20:11.513Z,20.9859
2023-04-25T03:21:13.087Z,20.9099
2023-04-25T03:22:14.844Z,20.8777
2023-04-25T03:23:16.421Z,20.8736
2023-04-25T03:24:18.157Z,20.8725
2023-04-25T03:25:19.732Z,20.8764
2023-04-25T03:26:22.448Z,20.8784
2023-04-25T03:27:23.094Z,20.9071
2023-04-25T03:28:24.740Z,20.9811
2023-04-25T03:29:26.374Z,21.0377
2023-04-25T03:30:28.047Z,21.0443
2023-04-25T03:31:29.713Z,21.0649
2023-04-25T03:32:31.363Z,21.0826
2023-04-25T03:33:32.992Z,21.0935
2023-04-25T03:34:34.735Z,21.0642
2023-04-25T03:35:36.249Z,21.0343
2023-04-25T03:36:39.145Z,21.0036
2023-04-25T03:37:39.540Z,20.9640
2023-04-25T03:38:42.226Z,20.9150
2023-04-25T03:39:43.731Z,20.8551
2023-04-25T03:40:44.576Z,20.7861
2023-04-25T03:41:46.102Z,20.7486
2023-04-25T03:42:47.846Z,20.7590
2023-04-25T03:43:49.617Z,20.7870
2023-04-25T03:44:51.146Z,20.7920
2023-04-25T03:45:52.769Z,20.7917
2023-04-25T03:46:54.424Z,20.8299
2023-04-25T03:47:56.009Z,20.9069
2023-04-25T03:48:57.734Z,20.9790
2023-04-25T03:50:00.334Z,21.0416
2023-04-25T03:51:00.951Z,21.0955
2023-04-25T03:52:02.552Z,21.1625
2023-04-25T03:53:04.244Z,21.2529
2023-04-25T03:54:05.928Z,21.3452
2023-04-25T03:55:08.095Z,21.4349
2023-04-25T03:56:09.185Z,21.5524
2023-04-25T03:57:10.836Z,21.6322
2023-04-25T03:58:12.428Z,21.6877
2023-04-25T03:59:14.245Z,21.7131
2023-04-25T04:00:15.795Z,21.7200
2023-04-25T04:01:18.074Z,21.7254
2023-04-25T04:02:19.213Z,21.7297
2023-04-25T04:03:20.925Z,21.7317
2023-04-25T04:04:22.647Z,21.7280
2023-04-25T04:05:25.554Z,21.7989
2023-04-25T04:06:25.693Z,21.9425
2023-04-25T04:07:27.391Z,22.1254
2023-04-25T04:08:28.951Z,22.3182
2023-04-25T04:09:30.672Z,22.5424
2023-04-25T04:10:32.320Z,22.7497
2023-04-25T04:11:34.043Z,22.9329
2023-04-25T04:12:35.530Z,23.0435
2023-04-25T04:13:37.273Z,23.1158
2023-04-25T04:14:38.854Z,23.2197
2023-04-25T04:15:40.652Z,23.3737
2023-04-25T04:16:42.208Z,23.5184
2023-04-25T04:17:43.944Z,23.6976
2023-04-25T04:18:45.500Z,23.8472
2023-04-25T04:19:47.160Z,23.9907
2023-04-25T04:20:48.793Z,24.1310
2023-04-25T04:21:50.530Z,24.2690
2023-04-25T04:22:52.054Z,24.3877
2023-04-25T04:23:53.762Z,24.5463
2023-04-25T04:24:55.405Z,24.6862
2023-04-25T04:25:57.122Z,24.8002
2023-04-25T04:26:58.705Z,24.9010
2023-04-25T04:28:00.384Z,25.0193
2023-04-25T04:29:01.982Z,25.1263
2023-04-25T04:30:03.658Z,25.1739
2023-04-25T04:31:05.401Z,25.2012
2023-04-25T04:32:07.127Z,25.1925
2023-04-25T04:33:08.641Z,25.1609
2023-04-25T04:34:10.269Z,25.1072
2023-04-25T04:35:11.912Z,25.0105
2023-04-25T04:36:13.616Z,24.8995
2023-04-25T04:37:15.225Z,24.8168
2023-04-25T04:38:16.868Z,24.7319
2023-04-25T04:39:18.504Z,24.7086
2023-04-25T04:40:20.193Z,24.7263
2023-04-25T04:41:21.912Z,24.8139
2023-04-25T04:42:23.543Z,24.9626
2023-04-25T04:43:25.143Z,25.1320
2023-04-25T04:44:26.794Z,25.2537
2023-04-25T04:45:28.390Z,25.2790
2023-04-25T04:46:30.133Z,25.2244
2023-04-25T04:47:31.785Z,25.1308
2023-04-25T04:48:33.422Z,25.0474
2023-04-25T04:49:35.043Z,24.9507
2023-04-25T04:50:36.695Z,24.8622
2023-04-25T04:51:38.352Z,24.8042
2023-04-25T04:52:40.059Z,24.8087
2023-04-25T04:53:41.684Z,24.8794
2023-04-25T04:54:43.322Z,24.9905
2023-04-25T04:55:44.944Z,25.1128
2023-04-25T04:56:46.563Z,25.1725
2023-04-25T04:57:48.233Z,25.1965
2023-04-25T04:58:49.976Z,25.1416
2023-04-25T04:59:51.586Z,25.0949
2023-04-25T05:00:53.195Z,25.0604
2023-04-25T05:01:54.864Z,25.0044
2023-04-25T05:02:56.539Z,24.9498
2023-04-25T05:03:58.572Z,24.9144
2023-04-25T05:05:00.137Z,24.8866
2023-04-25T05:06:01.466Z,24.8507
2023-04-25T05:07:03.127Z,24.8101
2023-04-25T05:08:04.718Z,24.7844
2023-04-25T05:09:06.381Z,24.7597
2023-04-25T05:10:08.093Z,24.7304
2023-04-25T05:11:09.666Z,24.7075
2023-04-25T05:12:11.368Z,24.6800
2023-04-25T05:13:12.953Z,24.6758
2023-04-25T05:14:14.714Z,24.6783
2023-04-25T05:15:16.269Z,24.6859
2023-04-25T05:16:17.968Z,24.6786
2023-04-25T05:17:19.583Z,24.6797
2023-04-25T05:18:23.546Z,24.6827
2023-04-25T05:19:22.871Z,24.6964
2023-04-25T05:20:24.560Z,24.6891
2023-04-25T05:21:26.113Z,24.6986
2023-04-25T05:22:27.857Z,24.7092
2023-04-25T05:23:29.454Z,24.7107
2023-04-25T05:24:31.176Z,24.7123
2023-04-25T05:25:32.813Z,24.7328
2023-04-25T05:26:34.453Z,24.7525
2023-04-25T05:27:36.141Z,24.7745
2023-04-25T05:28:37.733Z,24.7899
2023-04-25T05:29:39.312Z,24.8152
2023-04-25T05:30:41.083Z,24.8441
2023-04-25T05:31:42.760Z,24.8729
2023-04-25T05:32:44.371Z,24.8983
2023-04-25T05:33:45.940Z,24.9180
2023-04-25T05:34:47.641Z,24.9336
2023-04-25T05:35:49.333Z,24.9471
2023-04-25T05:36:50.981Z,24.9718
2023-04-25T05:37:52.511Z,25.0037
2023-04-25T05:38:54.227Z,25.0333
2023-04-25T05:39:55.759Z,25.0549
2023-04-25T05:40:57.460Z,25.0810
2023-04-25T05:41:59.532Z,25.1080
2023-04-25T05:43:01.584Z,25.1338
2023-04-25T05:44:02.313Z,25.1566
2023-04-25T05:45:04.058Z,25.1779
2023-04-25T05:46:05.664Z,25.1963
2023-04-25T05:47:07.379Z,25.2119
2023-04-25T05:48:09.031Z,25.2269
2023-04-25T05:49:10.638Z,25.2465
2023-04-25T05:50:12.264Z,25.2693
2023-04-25T05:51:13.929Z,25.2897
2023-04-25T05:52:15.577Z,25.3060
2023-04-25T05:53:17.531Z,25.3229
2023-04-25T05:54:18.894Z,25.3422
2023-04-25T05:55:20.557Z,25.3587
2023-04-25T05:56:22.115Z,25.3818
2023-04-25T05:57:23.880Z,25.4059
2023-04-25T05:58:25.503Z,25.4290
2023-04-25T05:59:27.167Z,25.4526
2023-04-25T06:00:28.741Z,25.4787
2023-04-25T06:01:30.420Z,25.5046
2023-04-25T06:02:32.194Z,25.5299
2023-04-25T06:03:34.086Z,25.5582
2023-04-25T06:04:35.722Z,25.5868
2023-04-25T06:05:37.108Z,25.6092
2023-04-25T06:06:39.534Z,25.6314
2023-04-25T06:07:40.254Z,25.6507
2023-04-25T06:08:42.028Z,25.6632
2023-04-25T06:09:43.682Z,25.6790
2023-04-25T06:10:45.259Z,25.6976
2023-04-25T06:11:46.924Z,25.7156
2023-04-25T06:12:48.615Z,25.7238
2023-04-25T06:13:50.498Z,25.7367
2023-04-25T06:14:52.277Z,25.7553
2023-04-25T06:15:53.686Z,25.7719
2023-04-25T06:16:55.366Z,25.7855
2023-04-25T06:17:56.977Z,25.7997
2023-04-25T06:18:58.648Z,25.8160
2023-04-25T06:20:00.261Z,25.8300
2023-04-25T06:21:02.889Z,25.8380
2023-04-25T06:22:03.538Z,25.8495
2023-04-25T06:23:05.207Z,25.8626
2023-04-25T06:24:06.859Z,25.8693
2023-04-25T06:25:08.557Z,25.8807
2023-04-25T06:26:10.116Z,25.8908
2023-04-25T06:27:12.277Z,25.9018
2023-04-25T06:28:13.422Z,25.9101
2023-04-25T06:29:15.200Z,25.9211
2023-04-25T06:30:16.744Z,25.9337
2023-04-25T06:31:18.520Z,25.9402
2023-04-25T06:32:20.104Z,25.9444
2023-04-25T06:33:21.775Z,25.9523
2023-04-25T06:34:23.739Z,25.9612
2023-04-25T06:35:25.036Z,25.9689
2023-04-25T06:36:26.806Z,25.9748
2023-04-25T06:37:28.302Z,25.9859
2023-04-25T06:38:29.977Z,25.9995
2023-04-25T06:39:31.616Z,26.0066
2023-04-25T06:40:33.239Z,26.0135
2023-04-25T06:41:35.050Z,26.0124
2023-04-25T06:42:37.533Z,26.0187
2023-04-25T06:43:38.099Z,26.0200
2023-04-25T06:44:39.726Z,26.0184
2023-04-25T06:45:41.467Z,26.0183
2023-04-25T06:46:43.113Z,26.0200
2023-04-25T06:47:44.813Z,26.0172
2023-04-25T06:48:46.317Z,26.0160
2023-04-25T06:49:48.004Z,26.0207
2023-04-25T06:50:50.144Z,26.0232
2023-04-25T06:51:52.209Z,26.0273
2023-04-25T06:52:52.911Z,26.0231
2023-04-25T06:53:54.618Z,26.0151
2023-04-25T06:54:56.282Z,26.0111
2023-04-25T06:55:58.209Z,26.0058
2023-04-25T06:56:59.594Z,26.0134
2023-04-25T06:58:01.144Z,26.0261
2023-04-25T06:59:02.866Z,26.0287
2023-04-25T07:00:04.463Z,26.0213
2023-04-25T07:01:06.233Z,26.0220
2023-04-25T07:02:08.661Z,26.0294
2023-04-25T07:03:09.531Z,26.0269
2023-04-25T07:04:11.295Z,26.0329
2023-04-25T07:05:12.743Z,26.0313
2023-04-25T07:06:14.465Z,26.0326
2023-04-25T07:07:16.219Z,26.0340
2023-04-25T07:08:17.658Z,26.0324
2023-04-25T07:09:19.359Z,26.0282
2023-04-25T07:10:20.954Z,26.0262
2023-04-25T07:11:22.690Z,26.0154
2023-04-25T07:12:24.272Z,26.0108
2023-04-25T07:13:25.958Z,26.0048
2023-04-25T07:14:27.599Z,25.9999
2023-04-25T07:15:29.270Z,25.9924
2023-04-25T07:16:30.962Z,25.9923
2023-04-25T07:17:32.597Z,25.9834
2023-04-25T07:18:34.168Z,25.9773
2023-04-25T07:19:35.854Z,25.9833
2023-04-25T07:20:37.452Z,25.9789
2023-04-25T07:21:39.235Z,25.9719
2023-04-25T07:22:40.881Z,25.9692
2023-04-25T07:23:42.493Z,25.9639
2023-04-25T07:24:44.137Z,25.9617
2023-04-25T07:25:45.921Z,25.9578
2023-04-25T07:26:47.523Z,25.9584
2023-04-25T07:27:49.117Z,25.9637
2023-04-25T07:28:50.865Z,25.9720
2023-04-25T07:29:52.387Z,25.9831
2023-04-25T07:30:54.017Z,26.0003
2023-04-25T07:31:55.793Z,26.0111
2023-04-25T07:32:57.404Z,26.0153
2023-04-25T07:34:00.630Z,26.0192
2023-04-25T07:35:00.616Z,26.0181
2023-04-25T07:36:02.286Z,26.0296
2023-04-25T07:37:03.936Z,26.0346
2023-04-25T07:38:05.630Z,26.0312
2023-04-25T07:39:07.207Z,26.0309
2023-04-25T07:40:08.915Z,26.0353
2023-04-25T07:41:10.558Z,26.0367
2023-04-25T07:42:12.214Z,26.0442
2023-04-25T07:43:13.812Z,26.0471
2023-04-25T07:44:15.506Z,26.0458
2023-04-25T07:45:17.092Z,26.0432
2023-04-25T07:46:18.849Z,26.0414
2023-04-25T07:47:20.489Z,26.0394
2023-04-25T07:48:22.131Z,26.0416
2023-04-25T07:49:23.651Z,26.0509
2023-04-25T07:50:25.447Z,26.0559
2023-04-25T07:51:26.938Z,26.0496
2023-04-25T07:52:28.673Z,26.0525
2023-04-25T07:53:30.252Z,26.0621
2023-04-25T07:54:31.949Z,26.0689
2023-04-25T07:55:33.623Z,26.0771
2023-04-25T07:56:49.123Z,26.0858
2023-04-25T07:57:36.895Z,26.0972
2023-04-25T07:58:38.532Z,26.1036
2023-04-25T07:59:40.156Z,26.1170
2023-04-25T08:00:41.803Z,26.1340
2023-04-25T08:01:43.420Z,26.1568
2023-04-25T08:02:45.781Z,26.1737
2023-04-25T08:03:47.861Z,26.1886
2023-04-25T08:04:48.513Z,26.2003
2023-04-25T08:05:50.245Z,26.2140
2023-04-25T08:06:51.707Z,26.2287
2023-04-25T08:07:53.332Z,26.2444
2023-04-25T08:08:55.027Z,26.2716
2023-04-25T08:09:56.590Z,26.2978
2023-04-25T08:10:58.296Z,26.3202
2023-04-25T08:11:59.879Z,26.3301
2023-04-25T08:13:01.611Z,26.3420
2023-04-25T08:14:03.219Z,26.3611
2023-04-25T08:15:04.982Z,26.3761
2023-04-25T08:16:06.548Z,26.3909
2023-04-25T08:17:08.146Z,26.4052
2023-04-25T08:18:10.244Z,26.4181
2023-04-25T08:19:11.510Z,26.4308
2023-04-25T08:20:13.073Z,26.4503
2023-04-25T08:21:14.750Z,26.4717
2023-04-25T08:22:16.391Z,26.4808
2023-04-25T08:23:18.148Z,26.4904
2023-04-25T08:24:19.720Z,26.4923
2023-04-25T08:25:21.370Z,26.4926
2023-04-25T08:26:23.030Z,26.4996
2023-04-25T08:27:25.183Z,26.5048
2023-04-25T08:28:26.346Z,26.5100
2023-04-25T08:29:27.988Z,26.5147
2023-04-25T08:30:29.564Z,26.5255
2023-04-25T08:31:31.251Z,26.5338
2023-04-25T08:32:32.880Z,26.5475
2023-04-25T08:33:34.601Z,26.5651
2023-04-25T08:34:36.698Z,26.5886
2023-04-25T08:35:37.843Z,26.6018
2023-04-25T08:36:40.305Z,26.6185
2023-04-25T08:37:41.137Z,26.6310
2023-04-25T08:38:42.772Z,26.6426
2023-04-25T08:39:44.476Z,26.6604
2023-04-25T08:40:46.045Z,26.6780
2023-04-25T08:41:47.741Z,26.6968
2023-04-25T08:42:49.341Z,26.7104
2023-04-25T08:43:51.064Z,26.7325
2023-04-25T08:44:52.944Z,26.7518
2023-04-25T08:45:54.325Z,26.7770
2023-04-25T08:46:55.949Z,26.8053
2023-04-25T08:47:57.632Z,26.8303
2023-04-25T08:48:59.423Z,26.8619
2023-04-25T08:50:00.976Z,26.8977
2023-04-25T08:51:02.557Z,26.9426
2023-04-25T08:52:04.246Z,26.9908
2023-04-25T08:53:05.954Z,26.9881
2023-04-25T08:54:34.219Z,26.9764
2023-04-25T08:55:09.215Z,26.9616
2023-04-25T08:56:10.766Z,26.9317
2023-04-25T08:57:12.450Z,26.8999
2023-04-25T08:58:14.104Z,26.8559
2023-04-25T08:59:16.779Z,26.8093
2023-04-25T09:00:17.400Z,26.7539
2023-04-25T09:01:19.071Z,26.7049
2023-04-25T09:02:20.799Z,26.6541
2023-04-25T09:03:22.489Z,26.6011
2023-04-25T09:04:24.061Z,26.5417
2023-04-25T09:05:25.746Z,26.4809
2023-04-25T09:06:27.278Z,26.4287
2023-04-25T09:07:28.907Z,26.3867
2023-04-25T09:08:30.555Z,26.3460
2023-04-25T09:09:32.331Z,26.3071
2023-04-25T09:10:34.027Z,26.2553
2023-04-25T09:11:35.511Z,26.1979
2023-04-25T09:12:37.180Z,26.1401
2023-04-25T09:13:38.853Z,26.0688
2023-04-25T09:14:40.484Z,25.9950
2023-04-25T09:15:42.150Z,25.9148
2023-04-25T09:16:43.757Z,25.8562
2023-04-25T09:17:45.556Z,25.8126
2023-04-25T09:18:49.124Z,25.7731
2023-04-25T09:19:49.298Z,25.7332
2023-04-25T09:21:00.116Z,25.6951
2023-04-25T09:21:52.064Z,25.6426
2023-04-25T09:22:53.614Z,25.5926
2023-04-25T09:23:55.380Z,25.5348
2023-04-25T09:24:57.008Z,25.5036
2023-04-25T09:25:58.620Z,25.4709
2023-04-25T09:27:00.247Z,25.4262
2023-04-25T09:28:01.882Z,25.3540
2023-04-25T09:29:03.492Z,25.2795
2023-04-25T09:30:05.186Z,25.2098
2023-04-25T09:31:06.946Z,25.1939
2023-04-25T09:32:08.544Z,25.1867
2023-04-25T09:33:10.231Z,25.1792
2023-04-25T09:34:11.748Z,25.1567
2023-04-25T09:35:13.475Z,25.1464
2023-04-25T09:36:15.105Z,25.1323
2023-04-25T09:37:16.746Z,25.0927
2023-04-25T09:38:18.321Z,25.0806
2023-04-25T09:39:20.028Z,25.0823
2023-04-25T09:40:21.678Z,25.0487
2023-04-25T09:41:23.385Z,24.9808
2023-04-25T09:42:24.979Z,24.9456
2023-04-25T09:43:26.626Z,24.9217
2023-04-25T09:44:28.267Z,24.9091
2023-04-25T09:45:29.975Z,24.8861
2023-04-25T09:46:31.657Z,24.8625
2023-04-25T09:47:33.222Z,24.8391
2023-04-25T09:48:34.842Z,24.8333
2023-04-25T09:49:36.516Z,24.8223
2023-04-25T09:50:38.768Z,24.8279
2023-04-25T09:51:39.852Z,24.8214
2023-04-25T09:52:41.420Z,24.7998
2023-04-25T09:53:43.134Z,24.8647
2023-04-25T09:54:44.754Z,24.9863
2023-04-25T09:55:46.431Z,25.1236
2023-04-25T09:56:48.100Z,25.2157
2023-04-25T09:57:49.621Z,25.2464
2023-04-25T09:58:51.312Z,25.2703
2023-04-25T09:59:52.919Z,25.3102
2023-04-25T10:00:54.682Z,25.3412
2023-04-25T10:01:56.723Z,25.3535
2023-04-25T10:02:57.937Z,25.3452
2023-04-25T10:03:59.835Z,25.3257
2023-04-25T10:05:01.229Z,25.3221
2023-04-25T10:06:02.863Z,25.3046
2023-04-25T10:07:04.788Z,25.2938
2023-04-25T10:08:06.053Z,25.2834
2023-04-25T10:09:07.802Z,25.2734
2023-04-25T10:10:09.389Z,25.2575
2023-04-25T10:11:11.292Z,25.2372
2023-04-25T10:12:12.738Z,25.2156
2023-04-25T10:13:14.399Z,25.1997
2023-04-25T10:14:15.939Z,25.2087
2023-04-25T10:15:17.659Z,25.2165
2023-04-25T10:16:19.412Z,25.2061
2023-04-25T10:17:21.008Z,25.1828
2023-04-25T10:18:22.528Z,25.1751
2023-04-25T10:19:24.276Z,25.1678
2023-04-25T10:20:25.868Z,25.1569
2023-04-25T10:21:27.613Z,25.1703
2023-04-25T10:22:29.218Z,25.1886
2023-04-25T10:23:30.891Z,25.2035
2023-04-25T10:24:32.493Z,25.2239
2023-04-25T10:25:34.122Z,25.2278
2023-04-25T10:26:36.299Z,25.2169
2023-04-25T10:27:38.299Z,25.2293
2023-04-25T10:28:39.154Z,25.2523
2023-04-25T10:29:40.768Z,25.2663
2023-04-25T10:30:42.324Z,25.2609
2023-04-25T10:31:44.094Z,25.2509
2023-04-25T10:32:45.699Z,25.2403
2023-04-25T10:33:48.528Z,25.2187
2023-04-25T10:34:48.956Z,25.2014
2023-04-25T10:35:50.643Z,25.1412
2023-04-25T10:36:52.205Z,24.8742
2023-04-25T10:37:53.995Z,24.4149
2023-04-25T10:38:55.570Z,24.0106
2023-04-25T10:39:57.213Z,23.9371
2023-04-25T10:40:58.818Z,23.9815
2023-04-25T10:42:00.518Z,24.1266
2023-04-25T10:43:02.196Z,24.4339
2023-04-25T10:44:04.812Z,24.8106
2023-04-25T10:45:05.436Z,25.1894
2023-04-25T10:46:07.169Z,25.5207
2023-04-25T10:47:08.867Z,25.8175
2023-04-25T10:48:11.384Z,26.0213
2023-04-25T10:49:14.272Z,26.1475
2023-04-25T10:50:13.736Z,26.2422
2023-04-25T10:51:15.350Z,26.2956
2023-04-25T10:52:17.032Z,26.3305
2023-04-25T10:53:19.260Z,26.3649
2023-04-25T10:54:21.355Z,26.4059
2023-04-25T10:55:21.977Z,26.4128
2023-04-25T10:56:24.208Z,26.4137
2023-04-25T10:57:25.231Z,26.3873
2023-04-25T10:58:26.961Z,26.3626
2023-04-25T10:59:28.565Z,26.3395
2023-04-25T11:00:42.964Z,26.3257
2023-04-25T11:01:31.894Z,26.3272
2023-04-25T11:02:33.612Z,26.3097
2023-04-25T11:03:35.419Z,26.2903
2023-04-25T11:04:37.689Z,26.2814
2023-04-25T11:05:51.006Z,26.2725
2023-04-25T11:06:40.084Z,26.2561
2023-04-25T11:08:43.391Z,26.2371
2023-04-25T11:09:45.103Z,26.2339
2023-04-25T11:10:46.763Z,26.2373
2023-04-25T11:11:48.784Z,26.2469
2023-04-25T11:12:50.060Z,26.2436
2023-04-25T11:13:51.609Z,26.2258
2023-04-25T11:14:53.352Z,26.2317
2023-04-25T11:16:03.279Z,26.2440
2023-04-25T11:16:58.187Z,26.2527
2023-04-25T11:17:58.284Z,26.2571
2023-04-25T11:18:59.930Z,26.2519
2023-04-25T11:20:01.507Z,26.2666
2023-04-25T11:21:03.204Z,26.3162
2023-04-25T11:22:04.964Z,26.3808
2023-04-25T11:23:06.587Z,26.5040
2023-04-25T11:24:08.091Z,26.6416
2023-04-25T11:25:09.794Z,26.7586
2023-04-25T11:26:11.493Z,26.8289
2023-04-25T11:27:13.223Z,26.8553
2023-04-25T11:28:15.278Z,26.8532
2023-04-25T11:29:16.520Z,26.8423
2023-04-25T11:30:18.079Z,26.8291
2023-04-25T11:31:19.833Z,26.8192
2023-04-25T11:32:21.921Z,26.7985
2023-04-25T11:33:23.121Z,26.7768
2023-04-25T11:34:24.691Z,26.7488
2023-04-25T11:35:26.367Z,26.7122
2023-04-25T11:36:28.028Z,26.6848
2023-04-25T11:37:29.774Z,26.6587
2023-04-25T11:38:31.360Z,26.6490
2023-04-25T11:39:32.951Z,26.6337
2023-04-25T11:40:34.617Z,26.6160
2023-04-25T11:41:36.304Z,26.5889
2023-04-25T11:42:38.845Z,26.5601
2023-04-25T11:43:40.345Z,26.5253
2023-04-25T11:44:41.196Z,26.5049
2023-04-25T11:45:42.920Z,26.5019
2023-04-25T11:46:44.554Z,26.4954
2023-04-25T11:47:46.252Z,26.4769
2023-04-25T11:48:48.147Z,26.4419
2023-04-25T11:49:49.541Z,26.4224
2023-04-25T11:50:51.118Z,26.4091
2023-04-25T11:51:52.778Z,26.3823
2023-04-25T11:52:54.540Z,26.3629
2023-04-25T11:53:56.188Z,26.3559
2023-04-25T11:54:57.773Z,26.3634
2023-04-25T11:55:59.414Z,26.3956
2023-04-25T11:57:02.005Z,26.4430
2023-04-25T11:58:02.632Z,26.4711
2023-04-25T11:59:04.405Z,26.4909
2023-04-25T12:00:06.444Z,26.5047
2023-04-25T12:01:07.648Z,26.5265
2023-04-25T12:02:09.316Z,26.5334
2023-04-25T12:03:11.127Z,26.5286
2023-04-25T12:04:12.822Z,26.5408
2023-04-25T12:05:30.231Z,26.5475
2023-04-25T12:06:16.822Z,26.5140
2023-04-25T12:07:17.594Z,26.5075
2023-04-25T12:08:19.202Z,26.5012
2023-04-25T12:09:20.886Z,26.4890
2023-04-25T12:10:22.547Z,26.4900
2023-04-25T12:11:24.065Z,26.4899
2023-04-25T12:12:25.773Z,26.4840
2023-04-25T12:13:27.356Z,26.4686
2023-04-25T12:14:29.382Z,26.4494
2023-04-25T12:15:30.708Z,26.4184
2023-04-25T12:16:32.401Z,26.3884
2023-04-25T12:17:34.008Z,26.3647
2023-04-25T12:18:35.672Z,26.3401
2023-04-25T12:19:37.894Z,26.3121
2023-04-25T12:20:39.032Z,26.2890
2023-04-25T12:21:56.622Z,26.2663
2023-04-25T12:22:42.248Z,26.2368
2023-04-25T12:23:43.911Z,26.2156
2023-04-25T12:24:45.872Z,26.1998
2023-04-25T12:25:47.260Z,26.1664
2023-04-25T12:26:48.866Z,26.1517